Latest Coastal Weather Observations for Swan Island

IDT60701

Issued at 9:52 pm EST Wednesday 22 May 2019 (issued every 10 minutes, with the page automatically refreshed every 10 minutes)

About coastal observations | Map of coastal stations | Coastal observations for TAS | Marine services | Other Formats
Station Details ID: 092123 Name: SWAN ISLAND Lat: -40.73 Lon: 148.12 Height: 15.0 m
Data from the previous 72 hours. | See also: Recent months at Swan Island
Date/Time
EST
Wind Sea
Height
m
Swell Vis
km
Cloud Weather Temp
°C
Press
hPa
Rain since
9am
mm
Dir  Spd
kts
Gust
kts
Height
m
Period
s
Dir
22/09:30pm WNW 8 12 - - - - - - - 14.0 1026.4 0.0
22/09:00pm WNW 8 11 - - - - - - - 13.9 1026.3 0.0
22/08:30pm W 8 11 - - - - - - - 13.9 1026.2 0.0
22/08:00pm W 10 14 - - - - - - - 13.8 1026.1 0.0
22/07:30pm W 9 13 - - - - - - - 14.0 1026.0 0.0
22/07:00pm W 10 16 - - - - - - - 14.0 1025.8 0.0
22/06:30pm WNW 11 15 - - - - - - - 14.2 1025.5 0.0
22/06:00pm WNW 11 15 - - - - - - - 14.3 1025.5 0.0
22/05:30pm WNW 12 16 - - - - - - - 14.3 1025.3 0.0
22/05:00pm WNW 11 16 - - - - - - - 14.3 1025.3 0.0
22/04:30pm WNW 12 18 - - - - - - - 14.8 1025.1 0.0
22/04:00pm WNW 13 20 - - - - - - - 15.1 1024.8 0.0
22/03:30pm WNW 14 20 - - - - - - - 15.5 1024.5 0.0
22/03:00pm WNW 13 18 - - - - - - - 15.7 1024.5 0.0
22/02:30pm WNW 14 19 - - - - - - - 16.0 1024.4 0.0
22/02:00pm WNW 15 21 - - - - - - - 16.1 1024.5 0.0
22/01:30pm WNW 14 20 - - - - - - - 16.3 1024.5 0.0
22/01:00pm W 12 17 - - - - - - - 16.7 1024.7 0.0
22/12:30pm WNW 12 18 - - - - - - - 16.8 1024.9 0.0
22/12:00pm WNW 12 16 - - - - - - - 16.6 1025.2 0.0
22/11:30am WNW 12 17 - - - - - - - 16.6 1025.6 0.0
22/11:00am WNW 12 16 - - - - - - - 16.5 1025.8 0.0
22/10:30am WNW 10 13 - - - - - - - 16.5 1025.7 0.0
22/10:00am WNW 12 16 - - - - - - - 15.5 1025.5 0.0
22/09:30am WNW 12 16 - - - - - - - 15.4 1025.1 0.0
22/09:00am WNW 12 16 - - - - - - - 14.9 1024.8 0.0
22/08:30am NW 14 17 - - - - - - - 15.4 1024.6 0.0
22/08:00am WNW 12 16 - - - - - - - 15.3 1024.5 0.0
22/07:30am WNW 12 17 - - - - - - - 15.0 1024.3 0.0
22/07:00am WNW 11 16 - - - - - - - 14.8 1023.9 0.0
22/06:30am WNW 13 18 - - - - - - - 14.8 1023.5 0.0
22/06:00am WNW 11 15 - - - - - - - 14.7 1023.4 0.0
22/05:30am WNW 13 17 - - - - - - - 14.6 1023.1 0.0
22/05:00am WNW 13 18 - - - - - - - 14.7 1022.9 0.0
22/04:30am WNW 12 17 - - - - - - - 14.7 1022.6 0.0
22/04:00am WNW 15 21 - - - - - - - 14.7 1022.4 0.0
22/03:30am WNW 17 21 - - - - - - - 14.7 1022.5 0.0
22/03:00am WNW 15 21 - - - - - - - 14.5 1022.4 0.0
22/02:30am WNW 11 15 - - - - - - - 15.0 1022.5 0.0
22/02:00am WNW 13 18 - - - - - - - 14.8 1022.4 0.0
22/01:30am WNW 13 17 - - - - - - - 14.8 1022.3 0.0
22/01:00am WNW 14 19 - - - - - - - 14.9 1022.3 0.0
22/12:30am WNW 15 21 - - - - - - - 14.9 1022.2 0.0
22/12:00am WNW 17 22 - - - - - - - 15.0 1022.1 0.0
 
Date/Time
EST
Wind Sea
Height
m
Swell Vis
km
Cloud Weather Temp
°C
Press
hPa
Rain since
9am
mm
Dir  Spd
kts
Gust
kts
Height
m
Period
s
Dir
21/11:30pm WNW 16 20 - - - - - - - 15.2 1022.0 0.0
21/11:00pm WNW 16 20 - - - - - - - 14.9 1022.0 0.0
21/10:30pm WNW 15 19 - - - - - - - 14.8 1022.1 0.0
21/10:00pm NW 13 19 - - - - - - - 15.0 1022.0 0.0
21/09:30pm WNW 14 17 - - - - - - - 14.9 1021.9 0.0
21/09:00pm WNW 12 17 - - - - - - - 15.0 1021.7 0.0
21/08:30pm WNW 12 17 - - - - - - - 14.9 1021.5 0.0
21/08:00pm WNW 14 18 - - - - - - - 14.8 1021.2 0.0
21/07:30pm WNW 14 20 - - - - - - - 14.9 1021.0 0.0
21/07:00pm WNW 13 19 - - - - - - - 14.8 1020.7 0.0
21/06:30pm WNW 13 19 - - - - - - - 14.9 1020.3 0.0
21/06:00pm WNW 13 18 - - - - - - - 14.7 1020.0 0.0
21/05:30pm WNW 12 17 - - - - - - - 14.7 1019.8 0.0
21/05:00pm WNW 17 22 - - - - - - - 14.8 1019.5 0.0
21/04:30pm WNW 16 23 - - - - - - - 14.9 1019.3 0.0
21/04:05pm W 17 28 - - - - - - - 14.8 1019.2 0.0
21/04:00pm WNW 19 27 - - - - - - - 15.0 1019.3 0.0
21/03:30pm WNW 16 23 - - - - - - - 15.3 1018.8 0.0
21/03:00pm WNW 17 23 - - - - - - - 15.6 1018.5 0.0
21/02:30pm WNW 18 24 - - - - - - - 15.7 1018.2 0.0
21/02:00pm WNW 15 20 - - - - - - - 15.7 1018.3 0.0
21/01:30pm WNW 13 19 - - - - - - - 16.1 1018.3 0.0
21/01:00pm WNW 16 21 - - - - - - - 16.0 1018.4 0.0
21/12:30pm WNW 17 24 - - - - - - - 15.7 1018.4 0.0
21/12:00pm WNW 16 23 - - - - - - - 16.0 1018.5 0.0
21/11:30am WNW 17 25 - - - - - - - 16.2 1018.9 0.0
21/11:00am WNW 17 25 - - - - - - - 15.2 1018.9 0.0
21/10:30am WNW 17 25 - - - - - - - 15.9 1018.7 0.0
21/10:00am WNW 18 24 - - - - - - - 15.4 1018.8 0.0
21/09:30am WNW 18 23 - - - - - - - 15.6 1018.6 0.0
21/09:00am WNW 17 25 - - - - - - - 15.1 1018.5 2.6
21/08:30am WNW 18 23 - - - - - - - 15.1 1018.2 2.6
21/08:00am WNW 17 25 - - - - - - - 14.8 1017.9 2.6
21/07:30am WNW 17 23 - - - - - - - 14.7 1017.3 2.6
21/07:00am WNW 16 22 - - - - - - - 14.7 1017.0 2.6
21/06:30am WNW 16 23 - - - - - - - 14.5 1016.9 2.6
21/06:00am WNW 16 22 - - - - - - - 14.6 1016.9 2.6
21/05:30am WNW 15 20 - - - - - - - 14.6 1016.8 2.6
21/05:00am WNW 18 26 - - - - - - - 14.7 1016.5 2.6
21/04:30am WNW 20 27 - - - - - - - 14.6 1016.3 2.6
21/04:00am WNW 16 23 - - - - - - - 14.7 1016.2 2.6
21/03:30am WNW 19 26 - - - - - - - 14.8 1016.3 2.6
21/03:00am WNW 16 21 - - - - - - - 14.9 1016.3 2.6
21/02:30am WNW 20 25 - - - - - - - 14.7 1016.1 2.6
21/02:00am NW 16 22 - - - - - - - 14.4 1016.2 2.6
21/01:30am WNW 16 21 - - - - - - - 14.7 1016.4 2.6
21/01:00am WNW 14 21 - - - - - - - 14.8 1016.6 2.6
21/12:30am NW 17 23 - - - - - - - 14.7 1016.7 2.6
21/12:00am NW 18 23 - - - - - - - 14.8 1016.8 2.6
 
Date/Time
EST
Wind Sea
Height
m
Swell Vis
km
Cloud Weather Temp
°C
Press
hPa
Rain since
9am
mm
Dir  Spd
kts
Gust
kts
Height
m
Period
s
Dir
20/11:30pm NW 16 21 - - - - - - - 14.7 1016.8 2.6
20/11:00pm NW 18 23 - - - - - - - 14.4 1016.9 2.6
20/10:31pm NNW 15 31 - - - - - - - 15.2 1017.2 2.6
20/10:30pm NNW 15 18 - - - - - - - 15.2 1017.2 2.6
20/10:00pm NNW 14 16 - - - - - - - 15.1 1017.3 1.6
20/09:30pm NNW 16 19 - - - - - - - 15.1 1017.3 1.6
20/09:00pm NNW 16 19 - - - - - - - 14.9 1017.2 1.6
20/08:30pm NNW 18 22 - - - - - - - 14.9 1017.1 1.6
20/08:00pm N 15 19 - - - - - - - 14.7 1017.1 1.6
20/07:30pm N 16 19 - - - - - - - 14.8 1017.1 1.6
20/07:00pm N 14 17 - - - - - - - 14.6 1017.2 1.6
20/06:30pm N 11 15 - - - - - - - 14.2 1017.2 1.6
20/06:00pm N 9 11 - - - - - - - 14.6 1017.3 1.6
20/05:30pm NNW 10 12 - - - - - - - 14.3 1017.4 1.6
20/05:00pm N 11 13 - - - - - - - 14.3 1017.7 1.6
20/04:30pm NW 11 14 - - - - - - - 14.2 1017.9 1.2
20/04:00pm NNW 14 17 - - - - - - - 14.4 1018.2 0.6
20/03:30pm NNW 11 13 - - - - - - - 14.8 1018.5 0.0
20/03:00pm NW 6 9 - - - - - - - 14.7 1018.5 0.0
20/02:30pm ESE 4 5 - - - - - - - 15.0 1018.7 0.0
20/02:00pm CALM 0 0 - - - - - - - 15.1 1018.7 0.0
20/01:30pm ESE 1 2 - - - - - - - 15.0 1019.1 0.0
20/01:00pm ESE 2 3 - - - - - - - 15.3 1019.8 0.0
20/12:30pm ESE 2 2 - - - - - - - 15.4 1020.2 0.0
20/12:00pm ESE 3 4 - - - - - - - 15.1 1020.6 0.0
20/11:30am ESE 3 5 - - - - - - - 14.7 1020.9 0.0
20/11:00am SE 3 4 - - - - - - - 14.0 1021.6 0.0
20/10:30am SE 3 4 - - - - - - - 13.3 1022.0 0.0
20/10:00am S 3 4 - - - - - - - 13.0 1022.4 0.0
20/09:30am S 3 4 - - - - - - - 13.2 1022.6 0.0
20/09:00am SSE 4 5 - - - - - - - 12.3 1022.6 0.4
20/08:30am SE 5 6 - - - - - - - 12.1 1022.7 0.4
20/08:00am SSE 3 4 - - - - - - - 11.7 1022.9 0.4
20/07:30am S 4 4 - - - - - - - 10.8 1023.1 0.4
20/07:00am S 4 5 - - - - - - - 10.6 1022.9 0.2
20/06:30am S 5 6 - - - - - - - 10.9 1023.0 0.2
20/06:00am SSW 6 7 - - - - - - - 10.7 1023.2 0.2
20/05:30am SSW 6 7 - - - - - - - 10.8 1023.3 0.2
20/05:00am S 5 6 - - - - - - - 10.9 1023.4 0.2
20/04:30am S 6 6 - - - - - - - 10.9 1023.4 0.2
20/04:00am S 5 6 - - - - - - - 11.1 1023.6 0.2
20/03:30am S 6 7 - - - - - - - 11.4 1023.6 0.2
20/03:00am S 6 7 - - - - - - - 11.2 1023.7 0.2
20/02:30am S 5 5 - - - - - - - 11.6 1023.9 0.2
20/02:00am S 4 5 - - - - - - - 11.5 1024.3 0.2
20/01:30am S 3 5 - - - - - - - 11.4 1024.6 0.2
20/01:00am SSE 4 5 - - - - - - - 11.6 1024.9 0.2
20/12:30am SSE 3 4 - - - - - - - 11.8 1025.3 0.0
20/12:00am SSE 3 4 - - - - - - - 11.7 1025.4 0.0
 
Date/Time
EST
Wind Sea
Height
m
Swell Vis
km
Cloud Weather Temp
°C
Press
hPa
Rain since
9am
mm
Dir  Spd
kts
Gust
kts
Height
m
Period
s
Dir
19/11:30pm S 3 3 - - - - - - - 12.2 1025.7 0.0
19/11:00pm S 3 4 - - - - - - - 12.1 1025.8 0.0
19/10:30pm SSE 3 4 - - - - - - - 12.4 1026.1 0.0
19/10:00pm SSE 3 3 - - - - - - - 12.2 1026.3 0.0

Other formats

Comma delimited format used in spreadsheet applications
http://www.bom.gov.au/fwo/IDT60701/IDT60701.95985.axf

JavaScript Object Notation format (JSON) in row-major order
http://www.bom.gov.au/fwo/IDT60701/IDT60701.95985.json

Data quality

Most of these data are generated automatically and are frequently updated. Quality checks on data are not normally performed. It is possible for incorrect values to appear. Refer to information at About Latest Weather Observations and please check the disclaimer before using these data.